GCLP/LPA METAR and TAF weather

Enter ICAO airport designator
Station Type Date Time Source
GCLP METAR 2018/01/16 09:00 UTC NOAA

GCLP 160900Z 02026G39KT 9999 FEW030 SCT045 17/08 Q1024 NOSIG


Station Type Date Time Source
GCLP Decoded METAR 2018/01/16 09:00 UTC NOAA

Gran Canaria - Canary Islands, Spain (GCLP) 27-56N 015-23W 47M
Jan 16, 2018 - 04:00 AM EST / 2018.01.16 0900 UTC
Wind: from the NNE (020 degrees) at 30 MPH (26 KT) gusting to 45 MPH (39 KT):0
Visibility: greater than 7 mile(s):0
Sky conditions: partly cloudy
Temperature: 62 F (17 C)
Dew Point: 46 F (8 C)
Relative Humidity: 55%
Pressure (altimeter): 30.24 in. Hg (1024 hPa)
ob: GCLP 160900Z 02026G39KT 9999 FEW030 SCT045 17/08 Q1024 NOSIG
cycle: 9

Station Type Date Time Source
GCLP TAF 2018/01/16 09:27 UTC NOAA

TAF GCLP 160800Z 1609/1709 02025KT 9999 BKN030 TX20/1614Z TN16/1706Z
TEMPO 1609/1621 02025G40KT PROB30
TEMPO 1609/1615 4500 RA


Example: see airport list